Sunday, July 22, 2018, 2:54 AM EDT
Back to Local

KJHW, Jamestown, Chautauqua County/jamestown Airport

Location: Jamestown, NY, United States Lat: 42.15
Local Time: 2:54 AM EDT ( 6:54 GMT) Lon: -79.267
Time Zone: US/Eastern Elev: 1722 ft

Show me the last for .
Show Decoded

2018-07-22 01:56 METAR KJHW 220556Z AUTO 10008KT 10SM RA FEW013 BKN041 OVC050 15/14 A2985 RMK AO2
                 SLP105 P0008 60009 T01500139 10194 20150 58024 =
2018-07-22 00:56 METAR KJHW 220456Z AUTO 08005KT 10SM -RA SCT012 OVC043 15/14 A2988 RMK AO2
                 SLP115 P0001 T01500144 402440150 =
2018-07-21 23:56 METAR KJHW 220356Z AUTO 13007KT 10SM -RA BKN039 BKN046 OVC060 16/14 A2990 RMK
                 AO2 SLP124 P0000 T01560139 =
2018-07-21 23:19 METAR KJHW 220319Z AUTO 12009KT 10SM -RA SCT013 BKN100 OVC120 16/14 A2992 RMK
                 AO2 P0000 =
2018-07-21 23:07 METAR KJHW 220307Z AUTO 12011KT 10SM BKN013 BKN100 16/14 A2992 RMK AO2 RAE05
                 P0000 =
2018-07-21 22:56 METAR KJHW 220256Z AUTO 12008KT 10SM -RA SCT012 BKN018 BKN060 16/14 A2993 RMK
                 AO2 RAB01 SLP131 P0000 60000 T01610144 58001 =
2018-07-21 22:20 METAR KJHW 220220Z AUTO 12007KT 10SM -RA BKN018 BKN110 17/14 A2993 RMK AO2 RAB01
                 P0000 =
2018-07-21 21:56 METAR KJHW 220156Z AUTO 13008KT 10SM FEW065 SCT080 BKN110 18/14 A2994 RMK AO2
                 SLP134 T01780139 =
2018-07-21 20:56 METAR KJHW 220056Z AUTO 14013G19KT 10SM SCT100 18/14 A2993 RMK AO2 SLP133
                 T01830139 =
2018-07-21 19:56 METAR KJHW 212356Z AUTO 14010G17KT 10SM CLR 19/15 A2993 RMK AO2 SLP132 T01940150
                 10244 20194 53002 =
2018-07-21 18:56 METAR KJHW 212256Z AUTO 12011KT 10SM BKN045 22/16 A2991 RMK AO2 SLP125 T02170156
                 =
2018-07-21 17:56 METAR KJHW 212156Z AUTO 12013G17KT 10SM OVC043 22/16 A2992 RMK AO2 SLP126
                 T02220161 =
2018-07-21 16:56 METAR KJHW 212056Z AUTO 14010KT 10SM SCT034 OVC040 23/16 A2992 RMK AO2 SLP127
                 T02280161 56004 =
2018-07-21 15:56 METAR KJHW 211956Z AUTO 14011G16KT 10SM OVC032 23/16 A2992 RMK AO2 SLP127
                 T02280161 =
2018-07-21 14:56 METAR KJHW 211856Z AUTO 15009G16KT 120V190 10SM SCT032 BKN070 24/17 A2993 RMK
                 AO2 SLP127 T02390167 =
2018-07-21 13:56 METAR KJHW 211756Z AUTO 17010G16KT 10SM OVC070 23/17 A2994 RMK AO2 SLP131
                 T02280167 10233 20189 58004 =
2018-07-21 12:56 METAR KJHW 211656Z AUTO 15011G18KT 10SM SCT065 23/17 A2994 RMK AO2 SLP132
                 T02330172 =
2018-07-21 11:56 METAR KJHW 211556Z AUTO 18015G20KT 10SM SCT060 21/16 A2996 RMK AO2 SLP138
                 T02110161 =
2018-07-21 10:56 METAR KJHW 211456Z AUTO 17014G18KT 10SM CLR 21/16 A2995 RMK AO2 SLP135 T02110161
                 51004 =
2018-07-21 10:31 METAR KJHW 211431Z AUTO 17014G20KT 10SM SCT026 21/16 A2994 RMK AO2 =
2018-07-21 10:16 METAR KJHW 211416Z AUTO 19013G17KT 10SM BKN026 21/16 A2995 RMK AO2 =
2018-07-21 09:56 METAR KJHW 211356Z AUTO 16011G21KT 10SM SCT024 22/16 A2994 RMK AO2 SLP133
                 T02170161 =
2018-07-21 08:56 METAR KJHW 211256Z AUTO 16011G19KT 130V190 10SM CLR 21/16 A2994 RMK AO2 SLP133
                 T02060156 =
2018-07-21 07:56 METAR KJHW 211156Z AUTO 15012G15KT 10SM CLR 19/15 A2994 RMK AO2 SLP131 T01890150
                 10206 20178 53001 =
2018-07-21 06:56 METAR KJHW 211056Z AUTO 16009G17KT 10SM CLR 18/14 A2993 RMK AO2 SLP128 T01780144
                 =
2018-07-21 05:56 METAR KJHW 210956Z AUTO 16009KT 10SM CLR 18/14 A2993 RMK AO2 SLP129 T01830139 =
2018-07-21 04:56 METAR KJHW 210856Z AUTO 16009G15KT 10SM CLR 19/13 A2993 RMK AO2 SLP128 T01890133
                 56008 =
2018-07-21 03:56 METAR KJHW 210756Z AUTO 16008G15KT 10SM SCT100 19/14 A2994 RMK AO2 SLP131
                 T01940139 =
2018-07-21 02:56 METAR KJHW 210656Z AUTO 16008KT 10SM BKN110 20/14 A2995 RMK AO2 SLP132 T02000144
                 =

Support USWX by starting your Amazon purchase here.